Terminal Aerodrome Forecast
Issued by NWS Lake Charles, LA

Home | Current Version | Previous Version | Text Only | Print | Product List | Glossary On
Versions: 1 2 3 4 5 6 7 8 9 10 11 12 13 14 15 16 17 18 19
000
FTUS44 KLCH 072320
TAFAEX
TAF
KAEX 072320Z 0800/0824 18010KT P6SM SCT040
     FM080200 18006KT P6SM FEW025
      TEMPO 0809/0813 BKN025
     FM081500 18010G18KT P6SM SCT035=

USA.gov is the U.S. government's official web portal to all federal, state and local government web resources and services.